PWSweather.com
Personal Weather Stations
Station Observations
PEISSEN1
PeissenbergDE

PeissenbergDE

Lat: 47.791845, Lon: 11.064121

Elevation: 1929

Station Type: Davis Vantage Pro 2

wetter-peissenberg.de

High Low Average
Temperature 58.8°F14.9°C 49.5°F9.7°C 54.3°F12.4°C
Dew Point 55.9°F13.3°C 47.2°F8.4°C 50.9°F10.5°C
Winds 9.5 mph 15.3 kmh Calm Calm Calm WSWCalm WSW
Wind Gusts 14.0 mph22.5 kmh -- 1.0 mph1.6 kmh
Humidity 93% 81% 88%
Pressure 30.22 in1023.4 mb 29.96 in1014.6 mb -
Precipitation 0.53 in13.5 mm - -
Hour Temp Dew Point Humidity Winds Wind Gusts Pressure Precip Precip Rate Daily Precip Total
12:00 AM 54.9°F12.7°C 50.1°F10.1°C 84% Calm Calm -- 29.98 in1015.2 mb 0.00 in0.0 mm 0.00 in0.0 mm 0.00 in0.0 mm
12:10 AM 54.7°F12.6°C 50.3°F10.2°C 85% Calm Calm -- 29.98 in1015.2 mb 0.00 in0.0 mm 0.00 in0.0 mm 0.00 in0.0 mm
12:20 AM 54.7°F12.6°C 50.3°F10.2°C 85% Calm Calm -- 29.98 in1015.2 mb 0.00 in0.0 mm 0.00 in0.0 mm 0.00 in0.0 mm
02:00 AM 55.2°F12.9°C 50.5°F10.3°C 84% Calm Calm -- 29.97 in1014.9 mb 0.00 in0.0 mm 0.00 in0.0 mm 0.00 in0.0 mm
02:10 AM 55.0°F12.8°C 50.0°F10.0°C 83% Calm Calm -- 29.97 in1014.9 mb 0.00 in0.0 mm 0.00 in0.0 mm 0.00 in0.0 mm
02:20 AM 54.7°F12.6°C 49.6°F9.8°C 83% Calm Calm -- 29.97 in1014.9 mb 0.00 in0.0 mm 0.00 in0.0 mm 0.00 in0.0 mm
04:00 AM 52.5°F11.4°C 49.1°F9.5°C 88% Calm Calm -- 29.96 in1014.6 mb 0.00 in0.0 mm 0.00 in0.0 mm 0.00 in0.0 mm
04:10 AM 52.5°F11.4°C 49.1°F9.5°C 88% Calm Calm -- 29.96 in1014.6 mb 0.00 in0.0 mm 0.00 in0.0 mm 0.00 in0.0 mm
04:20 AM 52.5°F11.4°C 49.1°F9.5°C 88% 0.1 mph N0.2 kmh N 1.0 mph1.6 kmh 29.96 in1014.6 mb 0.00 in0.0 mm 0.00 in0.0 mm 0.00 in0.0 mm
06:00 AM 54.5°F12.5°C 51.0°F10.6°C 88% Calm Calm -- 29.98 in1015.2 mb 0.00 in0.0 mm 0.00 in0.0 mm 0.00 in0.0 mm
06:10 AM 54.5°F12.5°C 50.7°F10.4°C 87% Calm Calm -- 29.98 in1015.2 mb 0.00 in0.0 mm 0.00 in0.0 mm 0.00 in0.0 mm
06:20 AM 54.7°F12.6°C 51.2°F10.7°C 88% 0.1 mph ESE0.2 kmh ESE 1.0 mph1.6 kmh 29.98 in1015.2 mb 0.00 in0.0 mm 0.00 in0.0 mm 0.00 in0.0 mm
08:00 AM 56.8°F13.8°C 52.7°F11.5°C 86% Calm Calm -- 30.01 in1016.3 mb 0.00 in0.0 mm 0.00 in0.0 mm 0.00 in0.0 mm
08:10 AM 57.4°F14.1°C 52.6°F11.4°C 84% Calm Calm -- 30.00 in1015.9 mb 0.00 in0.0 mm 0.00 in0.0 mm 0.00 in0.0 mm
08:20 AM 58.1°F14.5°C 52.3°F11.3°C 81% Calm Calm -- 30.01 in1016.3 mb 0.00 in0.0 mm 0.00 in0.0 mm 0.00 in0.0 mm
10:00 AM 58.6°F14.8°C 55.1°F12.8°C 88% Calm Calm -- 30.04 in1017.3 mb 0.00 in0.0 mm 0.00 in0.0 mm 0.03 in0.8 mm
10:10 AM 58.6°F14.8°C 55.4°F13.0°C 89% Calm Calm -- 30.04 in1017.3 mb 0.00 in0.0 mm 0.00 in0.0 mm 0.05 in1.3 mm
10:20 AM 58.5°F14.7°C 55.2°F12.9°C 89% Calm Calm -- 30.04 in1017.3 mb 0.00 in0.0 mm 0.00 in0.0 mm 0.06 in1.5 mm
12:00 PM 58.5°F14.7°C 55.5°F13.1°C 90% Calm Calm -- 30.04 in1017.3 mb 0.00 in0.0 mm 0.00 in0.0 mm 0.09 in2.3 mm
12:10 PM 58.6°F14.8°C 55.7°F13.2°C 90% Calm Calm -- 30.04 in1017.3 mb 0.00 in0.0 mm 0.00 in0.0 mm 0.09 in2.3 mm
12:20 PM 58.8°F14.9°C 55.9°F13.3°C 90% Calm Calm -- 30.05 in1017.6 mb 0.00 in0.0 mm 0.00 in0.0 mm 0.09 in2.3 mm
02:00 PM 57.4°F14.1°C 54.5°F12.5°C 90% 1.2 mph N1.9 kmh N 3.0 mph4.8 kmh 30.06 in1017.9 mb 0.00 in0.0 mm 0.00 in0.0 mm 0.16 in4.1 mm
02:10 PM 57.2°F14.0°C 54.3°F12.4°C 90% 1.2 mph NNW1.9 kmh NNW 3.0 mph4.8 kmh 30.06 in1017.9 mb 0.00 in0.0 mm 0.00 in0.0 mm 0.17 in4.3 mm
02:20 PM 57.0°F13.9°C 54.1°F12.3°C 90% 0.3 mph N0.5 kmh N 3.0 mph4.8 kmh 30.06 in1017.9 mb 0.00 in0.0 mm 0.00 in0.0 mm 0.17 in4.3 mm
04:00 PM 51.8°F11.0°C 48.1°F8.9°C 87% 9.5 mph WSW15.3 kmh WSW 14.0 mph22.5 kmh 30.11 in1019.6 mb 0.00 in0.0 mm 0.00 in0.0 mm 0.33 in8.4 mm
04:10 PM 51.3°F10.7°C 47.8°F8.8°C 88% 3.6 mph WSW5.8 kmh WSW 7.0 mph11.3 kmh 30.11 in1019.6 mb 0.00 in0.0 mm 0.00 in0.0 mm 0.35 in8.9 mm
04:20 PM 51.1°F10.6°C 47.7°F8.7°C 88% 0.4 mph N0.6 kmh N 2.0 mph3.2 kmh 30.11 in1019.6 mb 0.00 in0.0 mm 0.00 in0.0 mm 0.36 in9.1 mm
06:00 PM 51.6°F10.9°C 49.4°F9.7°C 92% Calm Calm -- 30.15 in1021.0 mb 0.00 in0.0 mm 0.00 in0.0 mm 0.39 in9.9 mm
06:10 PM 51.6°F10.9°C 49.4°F9.7°C 92% Calm Calm -- 30.16 in1021.3 mb 0.00 in0.0 mm 0.00 in0.0 mm 0.39 in9.9 mm
06:20 PM 51.6°F10.9°C 49.7°F9.8°C 93% Calm Calm -- 30.16 in1021.3 mb 0.00 in0.0 mm 0.00 in0.0 mm 0.39 in9.9 mm
08:00 PM 50.5°F10.3°C 48.3°F9.1°C 92% 0.1 mph WSW0.2 kmh WSW 1.0 mph1.6 kmh 30.21 in1023.0 mb 0.01 in0.3 mm 0.02 in0.5 mm 0.47 in11.9 mm
08:10 PM 50.4°F10.2°C 48.1°F8.9°C 92% 0.1 mph N0.2 kmh N 1.0 mph1.6 kmh 30.22 in1023.4 mb 0.00 in0.0 mm 0.00 in0.0 mm 0.47 in11.9 mm
08:20 PM 50.2°F10.1°C 47.9°F8.8°C 92% Calm Calm -- 30.21 in1023.0 mb 0.00 in0.0 mm 0.00 in0.0 mm 0.48 in12.2 mm
10:00 PM 49.8°F9.9°C 47.6°F8.7°C 92% Calm Calm -- 30.22 in1023.4 mb 0.01 in0.3 mm 0.02 in0.5 mm 0.52 in13.2 mm
10:10 PM 49.6°F9.8°C 47.4°F8.6°C 92% 0.1 mph WSW0.2 kmh WSW 1.0 mph1.6 kmh 30.22 in1023.4 mb 0.00 in0.0 mm 0.00 in0.0 mm 0.52 in13.2 mm
10:20 PM 49.5°F9.7°C 47.2°F8.4°C 92% 0.1 mph N0.2 kmh N 1.0 mph1.6 kmh 30.22 in1023.4 mb 0.00 in0.0 mm 0.00 in0.0 mm 0.53 in13.5 mm